Latest Weather Observations for Cape Willoughby

IDS60801

Issued at 11:31 pm CDT Monday 20 February 2017 (issued every 30 minutes, with the page automatically refreshed every 10 minutes)

About weather observations | Map of weather stations | Latest weather observations for SA | Other Formats
Station Details ID: 022803 Name: CAPE WILLOUGHBY Lat: -35.84 Lon: 138.13 Height: 55.0 m
Data from the previous 72 hours. | See also: Recent months at Cape Willoughby
Date/Time
CDT
Temp
°C
App
Temp
°C
Dew
Point
°C
Rel
Hum
%
Delta-T
°C
Wind Press
QNH
hPa
Press
MSL
hPa
Rain since
9am
mm
Dir  Spd
km/h
Gust
km/h
Spd
kts
Gust
kts
20/11:00pm 15.3 12.1 8.5 64 3.4 SE 15 20 8 11 1020.2 1020.0 -
20/10:30pm 15.4 11.9 8.9 65 3.3 SE 17 22 9 12 1020.0 1019.8 -
20/10:00pm 15.3 11.6 8.1 62 3.6 SE 17 24 9 13 1020.1 1019.9 -
20/09:30pm 15.6 12.6 9.1 65 3.3 SSE 15 22 8 12 1019.7 1019.6 -
20/09:00pm 15.6 12.8 8.6 63 3.6 SSE 13 20 7 11 1019.4 1019.3 -
20/08:30pm 15.6 12.3 8.1 61 3.8 SSE 15 20 8 11 1019.6 1019.5 -
20/08:00pm 15.8 12.6 8.5 62 3.7 SE 15 20 8 11 1019.2 1019.1 -
20/07:30pm 16.1 13.0 8.8 62 3.7 SSE 15 19 8 10 1019.0 1018.9 -
20/07:00pm 16.3 13.1 8.5 60 4.0 SSE 15 20 8 11 1018.8 1018.7 -
20/06:30pm 16.6 13.3 8.1 57 4.3 SSE 15 19 8 10 1018.6 1018.5 -
20/06:00pm 16.6 12.9 7.8 56 4.4 SSE 17 22 9 12 1018.3 1018.2 -
20/05:30pm 17.0 13.5 8.7 58 4.3 SSE 17 22 9 12 1017.9 1017.8 -
20/05:00pm 16.7 12.6 7.9 56 4.5 SSE 19 24 10 13 1017.9 1017.8 -
20/04:30pm 16.9 12.7 8.1 56 4.5 S 20 28 11 15 1018.0 1017.9 -
20/04:00pm 17.1 13.1 8.3 56 4.5 S 19 26 10 14 1018.0 1017.9 -
20/03:30pm 17.4 13.7 9.3 59 4.2 SSE 19 26 10 14 1018.2 1018.1 -
 
Date/Time
CDT
Temp
°C
App
Temp
°C
Dew
Point
°C
Rel
Hum
%
Delta-T
°C
Wind Press
QNH
hPa
Press
MSL
hPa
Rain since
9am
mm
Dir  Spd
km/h
Gust
km/h
Spd
kts
Gust
kts
19/09:30pm 15.3 9.9 10.9 75 2.3 S 30 43 16 23 1016.7 1016.6 -
19/09:00pm 15.1 9.1 10.9 76 2.2 S 33 46 18 25 1016.6 1016.5 -
19/08:00pm 15.7 10.7 12.1 79 2.0 S 30 43 16 23 1016.2 1016.1 0.0
19/07:30pm 16.0 10.4 10.1 68 3.1 SSW 30 41 16 22 1016.2 1016.1 0.0
19/07:00pm 16.0 10.1 11.2 73 2.6 SSW 33 41 18 22 1016.0 1015.9 0.0
19/06:30pm 15.8 10.8 11.0 73 2.6 SW 28 35 15 19 1016.1 1016.0 0.0
19/06:00pm 14.8 9.8 12.3 85 1.4 WSW 30 43 16 23 1016.1 1016.0 0.0
19/05:30pm 15.7 10.6 10.7 72 2.7 S 28 43 15 23 1015.8 1015.7 0.0
19/05:22pm 15.7 10.8 11.3 75 2.4 S 28 46 15 25 1015.9 1015.8 0.0
19/05:00pm 16.2 10.4 10.7 70 2.9 SSW 32 43 17 23 1015.8 1015.7 0.0
19/04:30pm 16.4 10.4 10.7 69 3.0 SSW 33 46 18 25 1015.6 1015.5 0.0
19/04:00pm 16.1 9.7 10.8 71 2.8 SSW 35 46 19 25 1015.9 1015.8 0.0
19/03:30pm 17.1 10.9 10.2 64 3.7 SW 33 43 18 23 1016.1 1016.0 0.0
19/03:00pm 16.4 12.1 12.0 75 2.4 SSW 26 39 14 21 1016.3 1016.2 0.0
19/02:30pm 16.0 11.6 11.6 75 2.4 SSW 26 46 14 25 1016.4 1016.3 0.0
19/02:00pm 16.2 11.3 11.2 72 2.7 SW 28 43 15 23 1016.5 1016.4 0.0
19/01:30pm 17.4 12.0 10.8 65 3.5 SW 30 39 16 21 1016.6 1016.5 0.0
19/01:00pm 17.4 11.4 10.1 62 3.9 SW 32 41 17 22 1016.7 1016.6 0.0
19/12:30pm 17.2 11.2 10.1 63 3.8 SSW 32 41 17 22 1016.9 1016.8 0.0
19/12:00pm 16.5 10.9 10.1 66 3.4 SSW 30 43 16 23 1016.9 1016.8 0.0
19/11:39am 15.4 9.3 11.8 79 2.0 SSW 35 54 19 29 1016.9 1016.8 0.0
19/11:30am 16.6 9.0 11.7 73 2.7 SSW 43 56 23 30 1016.8 1016.7 0.0
19/11:00am 16.2 11.0 10.3 68 3.1 SSW 28 43 15 23 1017.0 1016.9 0.0
19/10:41am 16.0 10.6 11.0 72 2.7 SSW 30 48 16 26 1017.0 1016.9 0.0
19/10:30am 16.2 10.0 9.4 64 3.5 SSW 32 43 17 23 1017.1 1017.0 0.0
19/10:00am 15.8 8.7 9.5 66 3.3 SSW 37 48 20 26 1016.9 1016.8 0.0
19/09:30am 16.0 9.7 9.7 66 3.3 SSW 33 41 18 22 1016.8 1016.7 0.0
19/09:00am 15.9 9.0 10.2 69 3.0 SSW 37 46 20 25 1016.6 1016.5 -
19/08:30am 15.9 10.0 9.1 64 3.5 SW 30 43 16 23 1016.4 1016.3 -
19/08:00am 15.3 8.9 9.2 67 3.1 SW 33 44 18 24 1016.5 1016.4 -
19/07:30am 15.2 9.0 9.3 68 3.0 SSW 32 46 17 25 1016.2 1016.1 -
19/07:00am 14.9 9.3 11.5 80 1.8 S 32 44 17 24 1016.0 1015.9 -
19/06:46am 15.2 9.1 10.4 73 2.5 SW 33 54 18 29 1015.6 1015.5 -
19/06:30am 15.4 9.2 7.9 61 3.8 SW 30 37 16 20 1015.8 1015.7 -
19/06:00am 15.4 9.0 10.6 73 2.5 SSW 35 46 19 25 1015.7 1015.6 -
19/05:30am 15.6 9.5 8.4 62 3.7 SSW 30 43 16 23 1015.5 1015.4 -
19/05:00am 15.2 9.0 9.3 68 3.0 SSW 32 44 17 24 1015.4 1015.3 -
19/04:30am 15.2 9.9 9.8 70 2.8 SSW 28 41 15 22 1015.7 1015.6 -
19/04:00am 14.7 10.2 8.6 67 3.1 SSW 22 39 12 21 1015.8 1015.7 -
19/03:30am 13.5 7.3 10.1 80 1.8 S 33 46 18 25 1016.0 1015.9 -
19/03:12am 14.6 7.4 10.6 77 2.1 SSW 39 56 21 30 1015.4 1015.3 -
19/03:00am 14.9 6.6 7.7 62 3.6 SW 41 54 22 29 1015.8 1015.7 0.0
19/02:30am 14.9 7.2 10.3 74 2.4 SSW 41 52 22 28 1016.1 1016.0 -
19/02:16am 15.3 9.5 9.4 68 3.0 SSW 30 50 16 27 1016.2 1016.1 -
19/02:00am 15.3 9.7 10.3 72 2.6 S 30 46 16 25 1016.5 1016.4 -
19/01:30am 14.9 11.2 10.3 74 2.4 S 20 30 11 16 1016.9 1016.8 -
19/01:00am 15.1 8.9 9.9 71 2.7 SSW 33 44 18 24 1016.9 1016.8 -
19/12:30am 15.2 8.9 8.9 66 3.2 SSW 32 41 17 22 1017.0 1016.9 -
19/12:00am 15.0 8.4 8.5 65 3.3 SSW 33 43 18 23 1017.1 1017.0 -
 
Date/Time
CDT
Temp
°C
App
Temp
°C
Dew
Point
°C
Rel
Hum
%
Delta-T
°C
Wind Press
QNH
hPa
Press
MSL
hPa
Rain since
9am
mm
Dir  Spd
km/h
Gust
km/h
Spd
kts
Gust
kts
18/11:30pm 15.0 10.1 8.5 65 3.3 SSW 24 39 13 21 1017.1 1017.0 -
18/11:00pm 15.0 10.3 9.1 68 3.0 SSW 24 39 13 21 1017.0 1016.9 -
18/10:30pm 14.9 10.0 8.4 65 3.3 SSW 24 39 13 21 1017.2 1017.1 -
18/10:16pm 14.7 9.2 9.3 70 2.8 SSW 28 46 15 25 1017.3 1017.2 -
18/10:00pm 15.3 10.1 10.3 72 2.6 SSW 28 41 15 22 1016.9 1016.8 -
18/09:52pm 15.3 9.7 8.8 65 3.3 SSW 28 46 15 25 1017.0 1016.9 -
18/09:30pm 15.1 9.1 8.8 66 3.2 SSW 30 44 16 24 1017.0 1016.9 -
18/09:02pm 15.4 9.8 8.6 64 3.5 SSW 28 48 15 26 1016.9 1016.8 -
18/09:00pm 15.4 9.5 8.9 65 3.3 SSW 30 48 16 26 1016.9 1016.8 0.0
18/08:50pm 15.3 9.3 8.8 65 3.3 SSW 30 50 16 27 1016.7 1016.6 -
18/08:30pm 15.4 10.0 9.5 68 3.1 SSW 28 41 15 22 1016.7 1016.6 -
18/08:00pm 15.3 8.0 7.3 59 4.0 SSW 35 43 19 23 1016.5 1016.4 -
18/07:30pm 15.4 8.1 7.2 58 4.0 SSW 35 46 19 25 1016.4 1016.3 -
18/07:00pm 15.3 8.8 9.0 66 3.2 SSW 33 46 18 25 1016.1 1016.0 -
18/06:30pm 15.6 10.5 9.3 66 3.3 S 26 41 14 22 1016.1 1016.0 -
18/06:00pm 16.0 9.6 8.7 62 3.7 SSW 32 41 17 22 1015.9 1015.8 -
18/05:30pm 16.3 9.3 8.3 59 4.1 SSW 35 43 19 23 1015.8 1015.7 -
18/05:00pm 15.9 11.4 8.4 61 3.8 SSW 22 35 12 19 1016.0 1015.9 -
18/04:30pm 15.3 9.7 10.3 72 2.6 S 30 43 16 23 1015.8 1015.7 -
18/04:00pm 16.6 10.9 8.3 58 4.2 SSW 28 46 15 25 1016.0 1015.9 -
18/03:30pm 14.9 8.2 8.2 64 3.4 SSW 33 48 18 26 1016.4 1016.3 -
18/03:16pm 16.1 9.1 9.8 66 3.3 SSW 37 56 20 30 1016.1 1016.0 -
18/03:00pm 16.1 9.6 8.8 62 3.7 SSW 33 44 18 24 1016.4 1016.3 -
18/02:30pm 16.8 9.9 7.4 54 4.7 SSW 33 44 18 24 1016.3 1016.2 -
18/02:01pm 16.5 11.1 9.4 63 3.7 SSW 28 46 15 25 1016.4 1016.3 -
18/02:00pm 16.5 11.5 9.4 63 3.7 SSW 26 46 14 25 1016.3 1016.2 -
18/01:00pm 13.1 5.9 10.5 84 1.4 SSW 39 56 21 30 1016.3 1016.2 -
18/12:30pm 16.1 10.8 8.3 60 4.0 SSW 26 37 14 20 1016.3 1016.2 -
18/12:00pm 14.5 8.7 9.5 72 2.6 SSW 30 41 16 22 1016.3 1016.2 -
18/11:54am 13.5 6.4 9.6 77 2.0 SSW 37 46 20 25 1016.2 1016.1 -
18/11:36am 15.1 7.6 9.5 69 2.9 SW 39 65 21 35 1015.6 1015.5 0.2
18/11:33am 17.1 11.3 10.9 67 3.3 SW 32 54 17 29 1016.0 1015.9 0.2
18/11:30am 16.8 11.3 9.2 61 3.9 SSW 28 43 15 23 1016.1 1016.0 0.2
18/11:00am 15.6 11.0 9.5 67 3.2 SW 24 33 13 18 1016.0 1015.9 0.2
18/10:30am 13.3 7.1 9.9 80 1.8 SSW 33 48 18 26 1016.1 1016.0 0.2
18/10:14am 16.0 10.8 10.3 69 3.0 SW 28 48 15 26 1015.8 1015.7 0.0
18/10:00am 15.3 11.1 9.7 69 2.9 SSW 22 33 12 18 1015.8 1015.7 0.0
18/09:30am 12.8 8.9 10.7 87 1.1 WNW 22 37 12 20 1015.8 1015.7 0.0
18/09:00am 14.7 10.1 9.7 72 2.6 SSW 24 33 13 18 1015.5 1015.4 -
18/08:30am 13.9 7.4 10.5 80 1.8 SSW 35 54 19 29 1014.8 1014.7 -
18/08:26am 14.4 10.1 10.8 79 1.9 SW 24 54 13 29 1014.7 1014.6 -
18/08:00am 12.7 9.4 9.7 82 1.5 WSW 17 28 9 15 1015.0 1014.9 -
18/07:30am 11.9 9.1 10.0 88 1.0 W 15 24 8 13 1014.7 1014.6 -
18/07:14am 12.2 7.4 10.3 88 1.0 W 26 30 14 16 1014.6 1014.5 -
18/07:04am 13.5 6.9 10.1 80 1.8 SSW 35 48 19 26 1014.3 1014.2 -
18/07:00am 14.2 9.1 10.6 79 1.9 SSW 28 44 15 24 1014.0 1013.9 -
18/06:30am 12.5 8.9 8.4 76 2.0 W 17 24 9 13 1013.8 1013.7 -
18/06:00am 12.6 8.7 9.4 81 1.6 W 20 30 11 16 1013.5 1013.4 -
18/05:49am 12.9 7.2 9.9 82 1.5 WNW 30 43 16 23 1013.4 1013.3 -
18/05:30am 13.3 10.0 9.5 78 1.9 W 17 24 9 13 1013.3 1013.2 -
18/05:00am 13.4 9.8 10.0 80 1.8 WSW 19 26 10 14 1013.3 1013.2 -
18/04:30am 12.9 8.8 10.1 83 1.4 WSW 22 37 12 20 1013.6 1013.5 -
18/04:14am 13.5 8.4 10.5 82 1.6 WSW 28 48 15 26 1013.6 1013.5 0.4
18/04:00am 13.5 9.3 9.7 78 2.0 WSW 22 26 12 14 1013.7 1013.6 0.4
18/03:30am 13.4 7.3 10.4 82 1.6 W 33 46 18 25 1013.8 1013.7 0.2
18/03:00am 15.4 9.7 9.7 69 3.0 SW 30 39 16 21 1013.5 1013.4 0.0
18/02:30am 14.9 12.0 10.9 77 2.1 WSW 17 32 9 17 1013.8 1013.7 0.0
18/02:00am 15.7 11.7 8.9 64 3.5 WSW 20 30 11 16 1013.9 1013.8 0.0
18/01:35am 16.2 10.1 9.6 65 3.4 SW 32 52 17 28 1013.9 1013.8 0.0
18/01:30am 16.3 10.5 9.5 64 3.5 SW 30 39 16 21 1014.2 1014.1 0.0
18/01:00am 16.2 10.2 8.7 61 3.8 SW 30 39 16 21 1014.3 1014.2 0.0
18/12:30am 15.8 8.7 9.5 66 3.3 SSW 37 46 20 25 1014.0 1013.9 0.0
18/12:20am 15.9 10.6 10.0 68 3.1 SW 28 48 15 26 1014.1 1014.0 0.0
18/12:00am 16.3 11.5 8.8 61 3.9 WSW 24 32 13 17 1014.3 1014.2 0.0

Other Formats:

Comma delimited format used in spreadsheet applications
http://www.bom.gov.au/fwo/IDS60801/IDS60801.94822.axf

JavaScript Object Notation format (JSON) in row-major order
http://www.bom.gov.au/fwo/IDS60801/IDS60801.94822.json